createdAt,value
2022-08-18T00:02:30.106Z,4.82
2022-08-18T00:04:58.352Z,5.05
2022-08-18T00:07:31.739Z,4.68
2022-08-18T00:10:00.332Z,4.40
2022-08-18T00:12:41.482Z,4.70
2022-08-18T00:15:12.493Z,4.70
2022-08-18T00:17:39.510Z,5.63
2022-08-18T00:20:14.811Z,5.55
2022-08-18T00:22:41.925Z,5.03
2022-08-18T00:25:13.312Z,4.53
2022-08-18T00:27:41.433Z,4.37
2022-08-18T00:30:14.269Z,4.28
2022-08-18T00:32:45.160Z,4.63
2022-08-18T00:35:26.689Z,4.50
2022-08-18T00:37:58.916Z,4.60
2022-08-18T00:40:38.094Z,4.20
2022-08-18T00:43:08.511Z,3.95
2022-08-18T00:45:39.392Z,4.80
2022-08-18T00:48:08.954Z,4.68
2022-08-18T00:50:52.472Z,4.32
2022-08-18T00:53:50.289Z,4.55
2022-08-18T00:56:31.633Z,4.35
2022-08-18T00:59:14.748Z,4.38
2022-08-18T01:01:43.557Z,4.57
2022-08-18T01:04:21.025Z,4.75
2022-08-18T01:07:00.808Z,4.68
2022-08-18T01:09:27.903Z,5.20
2022-08-18T01:11:56.391Z,4.80
2022-08-18T01:14:24.138Z,4.82
2022-08-18T01:17:10.546Z,5.10
2022-08-18T01:19:56.856Z,4.88
2022-08-18T01:22:36.329Z,4.65
2022-08-18T01:25:26.387Z,3.97
2022-08-18T01:27:56.045Z,5.00
2022-08-18T01:30:27.852Z,3.85
2022-08-18T01:32:54.785Z,4.55
2022-08-18T01:35:25.729Z,4.90
2022-08-18T01:37:54.673Z,4.55
2022-08-18T01:41:23.719Z,5.35
2022-08-18T01:43:11.782Z,4.88
2022-08-18T01:45:39.334Z,4.82
2022-08-18T01:48:06.567Z,5.00
2022-08-18T01:50:35.329Z,5.40
2022-08-18T01:53:05.877Z,5.53
2022-08-18T01:55:35.461Z,5.53
2022-08-18T01:58:03.053Z,5.00
2022-08-18T02:00:32.270Z,5.30
2022-08-18T02:03:02.556Z,5.38
2022-08-18T02:05:42.741Z,5.05
2022-08-18T02:08:12.375Z,5.95
2022-08-18T02:10:40.445Z,5.60
2022-08-18T02:13:08.334Z,6.15
2022-08-18T02:15:35.699Z,5.63
2022-08-18T02:18:02.637Z,5.78
2022-08-18T02:20:29.695Z,6.10
2022-08-18T02:22:58.790Z,5.47
2022-08-18T02:25:25.887Z,5.35
2022-08-18T02:27:53.408Z,5.43
2022-08-18T02:30:21.030Z,5.10
2022-08-18T02:32:48.511Z,5.32
2022-08-18T02:35:15.731Z,5.80
2022-08-18T02:37:47.635Z,4.80
2022-08-18T02:40:16.406Z,5.68
2022-08-18T02:42:45.467Z,6.97
2022-08-18T02:45:13.981Z,6.28
2022-08-18T02:47:44.285Z,6.90
2022-08-18T02:50:13.555Z,7.93
2022-08-18T02:52:41.321Z,7.55
2022-08-18T02:55:09.482Z,7.70
2022-08-18T02:57:36.607Z,8.18
2022-08-18T03:00:04.883Z,7.20
2022-08-18T03:02:32.389Z,7.07
2022-08-18T03:04:59.326Z,5.68
2022-08-18T03:07:26.206Z,6.32
2022-08-18T03:09:53.094Z,6.32
2022-08-18T03:12:20.120Z,5.93
2022-08-18T03:14:47.081Z,6.40
2022-08-18T03:17:15.036Z,5.85
2022-08-18T03:19:44.951Z,7.22
2022-08-18T03:22:27.774Z,6.40
2022-08-18T03:24:57.144Z,7.60
2022-08-18T03:27:24.928Z,8.23
2022-08-18T03:29:52.072Z,7.95
2022-08-18T03:32:18.971Z,7.18
2022-08-18T03:34:46.171Z,7.07
2022-08-18T03:37:16.167Z,6.65
2022-08-18T03:39:43.146Z,6.78
2022-08-18T03:42:10.616Z,6.25
2022-08-18T03:44:37.597Z,7.80
2022-08-18T03:47:10.398Z,8.02
2022-08-18T03:49:37.938Z,6.07
2022-08-18T03:52:09.708Z,5.28
2022-08-18T03:54:39.048Z,5.53
2022-08-18T03:57:10.039Z,5.35
2022-08-18T03:59:38.285Z,5.03
2022-08-18T04:02:05.859Z,8.20
2022-08-18T04:04:33.605Z,7.38
2022-08-18T04:07:07.741Z,8.00
2022-08-18T04:09:37.485Z,7.68
2022-08-18T04:12:16.372Z,7.80
2022-08-18T04:14:48.610Z,8.48
2022-08-18T04:17:24.885Z,7.15
2022-08-18T04:19:55.936Z,8.20
2022-08-18T04:22:23.594Z,7.68
2022-08-18T04:24:51.295Z,7.95
2022-08-18T04:27:20.672Z,6.13
2022-08-18T04:29:48.145Z,7.57
2022-08-18T04:32:15.190Z,7.50
2022-08-18T04:34:49.153Z,8.15
2022-08-18T04:37:17.020Z,7.38
2022-08-18T04:39:45.500Z,7.72
2022-08-18T04:42:12.865Z,7.20
2022-08-18T04:44:40.119Z,6.88
2022-08-18T04:47:10.068Z,6.90
2022-08-18T04:49:37.746Z,8.23
2022-08-18T04:52:39.813Z,7.95
2022-08-18T04:55:10.144Z,7.15
2022-08-18T04:57:37.167Z,6.78
2022-08-18T05:00:07.420Z,6.72
2022-08-18T05:02:35.071Z,7.18
2022-08-18T05:05:03.864Z,6.97
2022-08-18T05:07:30.986Z,7.13
2022-08-18T05:09:57.975Z,6.22
2022-08-18T05:12:26.056Z,6.65
2022-08-18T05:14:54.596Z,6.75
2022-08-18T05:17:21.478Z,7.18
2022-08-18T05:19:51.710Z,6.53
2022-08-18T05:22:24.243Z,5.75
2022-08-18T05:24:58.316Z,6.35
2022-08-18T05:27:25.249Z,6.38
2022-08-18T05:29:52.083Z,7.85
2022-08-18T05:32:37.231Z,8.18
2022-08-18T05:35:21.350Z,6.38
2022-08-18T05:38:25.383Z,7.47
2022-08-18T05:41:18.371Z,9.40
2022-08-18T05:43:51.198Z,10.88
2022-08-18T05:46:22.583Z,11.20
2022-08-18T05:48:50.676Z,12.75
2022-08-18T05:51:43.952Z,12.20
2022-08-18T05:54:31.376Z,12.77
2022-08-18T05:57:10.145Z,12.77
2022-08-18T05:59:41.907Z,13.07
2022-08-18T06:02:35.271Z,13.73
2022-08-18T06:05:15.962Z,10.93
2022-08-18T06:07:53.398Z,12.50
2022-08-18T06:10:22.171Z,12.68
2022-08-18T06:12:57.260Z,14.40
2022-08-18T06:15:49.738Z,11.98
2022-08-18T06:18:51.342Z,13.75
2022-08-18T06:21:52.205Z,12.18
2022-08-18T06:24:44.693Z,13.05
2022-08-18T06:27:55.946Z,11.20
2022-08-18T06:30:27.582Z,13.27
2022-08-18T06:33:29.655Z,10.27
2022-08-18T06:36:18.782Z,10.68
2022-08-18T06:39:30.567Z,12.25
2022-08-18T06:41:57.738Z,12.15
2022-08-18T06:44:34.537Z,10.75
2022-08-18T06:47:40.847Z,10.75
2022-08-18T06:50:20.597Z,10.38
2022-08-18T06:53:02.269Z,10.70
2022-08-18T06:55:45.997Z,11.13
2022-08-18T06:58:15.864Z,11.15
2022-08-18T07:00:50.620Z,13.15
2022-08-18T07:03:44.887Z,12.60
2022-08-18T07:06:23.476Z,15.95
2022-08-18T07:08:54.647Z,15.98
2022-08-18T07:11:33.102Z,14.30
2022-08-18T07:14:17.053Z,14.65
2022-08-18T07:16:58.447Z,14.25
2022-08-18T07:19:30.736Z,14.18
2022-08-18T07:22:13.227Z,15.40
2022-08-18T07:24:50.332Z,14.07
2022-08-18T07:27:22.398Z,17.20
2022-08-18T07:30:09.094Z,17.45
2022-08-18T07:33:03.489Z,17.38
2022-08-18T07:35:49.928Z,19.10
2022-08-18T07:38:43.896Z,19.00
2022-08-18T07:41:53.014Z,18.42
2022-08-18T07:44:25.810Z,19.25
2022-08-18T07:47:02.138Z,20.40
2022-08-18T07:49:35.400Z,21.27
2022-08-18T07:52:16.363Z,20.63
2022-08-18T07:55:31.290Z,19.73
2022-08-18T07:58:38.063Z,21.20
2022-08-18T08:01:50.165Z,21.05
2022-08-18T08:04:39.633Z,21.35
2022-08-18T08:07:24.539Z,21.85
2022-08-18T08:10:23.871Z,23.08
2022-08-18T08:13:51.772Z,17.80
2022-08-18T08:16:49.023Z,22.52
2022-08-18T08:19:49.373Z,19.85
2022-08-18T08:22:26.332Z,21.35
2022-08-18T08:25:45.350Z,21.95
2022-08-18T08:28:36.836Z,22.20
2022-08-18T08:31:39.768Z,24.20
2022-08-18T08:36:47.589Z,21.50
2022-08-18T08:39:38.479Z,19.75
2022-08-18T08:42:40.460Z,22.90
2022-08-18T08:45:16.589Z,21.63
2022-08-18T08:48:08.423Z,20.02
2022-08-18T08:51:00.640Z,20.77
2022-08-18T08:53:32.772Z,20.70
2022-08-18T08:56:08.298Z,21.05
2022-08-18T08:58:40.810Z,19.80
2022-08-18T09:01:25.197Z,17.10
2022-08-18T09:04:30.876Z,17.02
2022-08-18T09:07:23.584Z,18.85
2022-08-18T09:13:28.417Z,15.73
2022-08-18T09:16:29.740Z,19.00
2022-08-18T09:19:48.787Z,18.17
2022-08-18T09:22:34.184Z,21.83
2022-08-18T09:25:01.688Z,20.40
2022-08-18T09:30:54.468Z,19.98
2022-08-18T09:33:45.748Z,20.70
2022-08-18T09:36:40.217Z,20.52
2022-08-18T09:39:53.837Z,19.58
2022-08-18T09:45:46.987Z,21.38
2022-08-18T09:48:20.727Z,22.25
2022-08-18T09:50:57.040Z,23.20
2022-08-18T09:53:55.162Z,21.33
2022-08-18T09:57:00.689Z,20.35
2022-08-18T09:59:34.575Z,22.70
2022-08-18T10:02:22.741Z,21.70
2022-08-18T10:05:17.090Z,20.98
2022-08-18T10:07:57.906Z,19.95
2022-08-18T10:11:01.401Z,19.83
2022-08-18T10:14:07.991Z,21.23
2022-08-18T10:17:16.006Z,21.95
2022-08-18T10:19:54.437Z,22.83
2022-08-18T10:22:47.843Z,21.50
2022-08-18T10:25:42.684Z,20.70
2022-08-18T10:28:50.062Z,20.45
2022-08-18T10:31:19.109Z,18.88
2022-08-18T10:36:52.117Z,19.15
2022-08-18T10:39:24.885Z,16.60
2022-08-18T10:42:15.167Z,19.42
2022-08-18T10:44:45.787Z,13.70
2022-08-18T10:47:33.666Z,13.75
2022-08-18T10:50:09.451Z,14.40
2022-08-18T10:53:35.681Z,15.95
2022-08-18T10:56:05.275Z,16.48
2022-08-18T10:58:51.584Z,14.15
2022-08-18T11:01:51.299Z,15.13
2022-08-18T11:04:59.024Z,14.43
2022-08-18T11:07:30.989Z,13.43
2022-08-18T11:10:32.601Z,12.15
2022-08-18T11:13:16.488Z,14.35
2022-08-18T11:16:13.453Z,13.63
2022-08-18T11:18:43.849Z,15.30
2022-08-18T11:21:42.778Z,14.68
2022-08-18T11:24:29.687Z,15.20
2022-08-18T11:27:02.162Z,16.13
2022-08-18T11:29:40.762Z,14.38
2022-08-18T11:32:35.028Z,17.95
2022-08-18T11:35:11.106Z,16.95
2022-08-18T11:37:51.565Z,15.57
2022-08-18T11:41:10.819Z,16.08
2022-08-18T11:43:41.513Z,15.93
2022-08-18T11:46:29.255Z,17.52
2022-08-18T11:49:01.901Z,18.38
2022-08-18T11:51:33.817Z,18.88
2022-08-18T11:54:12.868Z,18.40
2022-08-18T11:56:40.041Z,18.05
2022-08-18T11:59:34.792Z,16.88
2022-08-18T12:02:18.420Z,16.55
2022-08-18T12:04:57.839Z,16.48
2022-08-18T12:07:33.561Z,16.77
2022-08-18T12:10:26.448Z,12.68
2022-08-18T12:13:00.387Z,17.25
2022-08-18T12:15:46.429Z,17.50
2022-08-18T12:18:25.980Z,18.40
2022-08-18T12:20:59.113Z,16.63
2022-08-18T12:23:26.416Z,12.65
2022-08-18T12:25:53.503Z,15.55
2022-08-18T12:28:22.469Z,16.83
2022-08-18T12:30:56.723Z,17.25
2022-08-18T12:33:25.498Z,16.17
2022-08-18T12:35:52.758Z,16.27
2022-08-18T12:38:19.851Z,16.25
2022-08-18T12:40:46.750Z,14.80
2022-08-18T12:43:13.652Z,12.82
2022-08-18T12:45:43.759Z,17.02
2022-08-18T12:48:11.912Z,15.20
2022-08-18T12:50:49.937Z,16.17
2022-08-18T12:53:30.777Z,15.48
2022-08-18T12:56:30.636Z,14.98
2022-08-18T12:59:04.511Z,14.98
2022-08-18T13:01:34.157Z,14.68
2022-08-18T13:04:11.550Z,15.48
2022-08-18T13:06:58.789Z,15.18
2022-08-18T13:09:35.800Z,14.13
2022-08-18T13:12:16.007Z,15.07
2022-08-18T13:14:44.695Z,14.75
2022-08-18T13:17:32.393Z,13.32
2022-08-18T13:20:05.605Z,12.32
2022-08-18T13:22:33.369Z,14.75
2022-08-18T13:25:07.170Z,12.43
2022-08-18T13:27:37.417Z,11.93
2022-08-18T13:30:31.568Z,15.57
2022-08-18T13:33:05.401Z,11.20
2022-08-18T13:35:53.977Z,13.32
2022-08-18T13:38:25.850Z,12.43
2022-08-18T13:40:59.038Z,11.18
2022-08-18T13:43:39.317Z,12.13
2022-08-18T13:46:09.824Z,11.52
2022-08-18T13:48:37.931Z,13.30
2022-08-18T13:51:09.250Z,13.15
2022-08-18T13:53:50.499Z,11.95
2022-08-18T13:56:19.702Z,11.25
2022-08-18T13:58:53.255Z,10.95
2022-08-18T14:01:45.331Z,11.38
2022-08-18T14:04:12.596Z,9.30
2022-08-18T14:06:46.860Z,11.13
2022-08-18T14:09:20.044Z,9.70
2022-08-18T14:12:22.582Z,11.02
2022-08-18T14:14:55.864Z,7.95
2022-08-18T14:17:27.291Z,8.77
2022-08-18T14:20:15.338Z,7.35
2022-08-18T14:23:23.532Z,9.23
2022-08-18T14:26:10.583Z,6.63
2022-08-18T14:28:38.397Z,6.72
2022-08-18T14:31:08.920Z,6.63
2022-08-18T14:33:51.306Z,5.93
2022-08-18T14:36:20.103Z,6.55
2022-08-18T14:38:58.702Z,6.38
2022-08-18T14:41:27.303Z,5.63
2022-08-18T14:44:11.391Z,7.03
2022-08-18T14:46:40.955Z,4.85
2022-08-18T14:49:08.085Z,6.43
2022-08-18T14:51:36.778Z,5.28
2022-08-18T14:54:06.921Z,6.90
2022-08-18T14:56:38.932Z,6.40
2022-08-18T14:59:07.578Z,6.55
2022-08-18T15:01:36.915Z,6.65
2022-08-18T15:04:18.560Z,7.60
2022-08-18T15:06:46.043Z,6.78
2022-08-18T15:09:27.526Z,7.18
2022-08-18T15:11:58.816Z,6.50
2022-08-18T15:14:33.071Z,6.78
2022-08-18T15:17:11.872Z,5.85
2022-08-18T15:20:00.022Z,7.60
2022-08-18T15:22:45.919Z,6.57
2022-08-18T15:25:33.974Z,6.82
2022-08-18T15:28:01.024Z,7.43
2022-08-18T15:30:28.358Z,7.15
2022-08-18T15:32:55.612Z,7.15
2022-08-18T15:35:22.738Z,6.38
2022-08-18T15:37:51.363Z,5.20
2022-08-18T15:40:31.044Z,5.85
2022-08-18T15:43:09.763Z,5.40
2022-08-18T15:45:56.441Z,5.93
2022-08-18T15:48:28.579Z,5.80
2022-08-18T15:50:56.936Z,4.90
2022-08-18T15:53:29.681Z,4.43
2022-08-18T15:55:58.193Z,4.35
2022-08-18T15:58:28.611Z,4.60
2022-08-18T16:00:56.535Z,4.20
2022-08-18T16:03:26.020Z,3.92
2022-08-18T16:05:55.555Z,4.13
2022-08-18T16:08:25.023Z,4.28
2022-08-18T16:10:53.838Z,3.55
2022-08-18T16:13:22.762Z,4.53
2022-08-18T16:15:50.486Z,4.68
2022-08-18T16:18:21.083Z,5.10
2022-08-18T16:20:48.145Z,4.10
2022-08-18T16:23:17.708Z,5.15
2022-08-18T16:25:45.756Z,3.92
2022-08-18T16:28:13.366Z,4.70
2022-08-18T16:30:41.058Z,3.95
2022-08-18T16:33:08.054Z,4.55
2022-08-18T16:35:37.521Z,4.68
2022-08-18T16:38:09.505Z,3.92
2022-08-18T16:40:37.668Z,5.13
2022-08-18T16:43:06.715Z,4.63
2022-08-18T16:45:36.959Z,5.03
2022-08-18T16:48:06.432Z,4.40
2022-08-18T16:50:33.542Z,3.95
2022-08-18T16:53:00.577Z,5.35
2022-08-18T16:55:27.513Z,5.35
2022-08-18T16:58:15.572Z,5.43
2022-08-18T17:01:01.722Z,5.35
2022-08-18T17:03:47.405Z,5.18
2022-08-18T17:06:17.575Z,4.75
2022-08-18T17:08:46.765Z,4.75
2022-08-18T17:11:18.850Z,5.88
2022-08-18T17:13:48.532Z,5.57
2022-08-18T17:16:18.336Z,6.30
2022-08-18T17:18:46.021Z,6.50
2022-08-18T17:21:18.844Z,6.35
2022-08-18T17:23:46.750Z,6.70
2022-08-18T17:26:27.116Z,6.90
2022-08-18T17:29:25.400Z,6.97
2022-08-18T17:32:02.249Z,7.97
2022-08-18T17:34:41.874Z,9.05
2022-08-18T17:37:13.850Z,9.43
2022-08-18T17:42:31.436Z,6.75
2022-08-18T17:45:21.685Z,6.90
2022-08-18T17:48:03.081Z,6.55
2022-08-18T17:51:03.060Z,6.97
2022-08-18T17:53:34.441Z,7.85
2022-08-18T17:56:15.532Z,9.40
2022-08-18T17:59:46.375Z,7.93
2022-08-18T18:02:29.785Z,9.55
2022-08-18T18:05:09.944Z,9.30
2022-08-18T18:07:39.678Z,8.73
2022-08-18T18:10:14.402Z,7.47
2022-08-18T18:12:41.855Z,8.13
2022-08-18T18:15:13.419Z,8.25
2022-08-18T18:17:43.189Z,9.68
2022-08-18T18:20:41.902Z,8.77
2022-08-18T18:23:22.782Z,7.95
2022-08-18T18:25:50.761Z,8.05
2022-08-18T18:28:33.399Z,7.78
2022-08-18T18:31:25.139Z,8.00
2022-08-18T18:34:07.077Z,7.70
2022-08-18T18:36:51.994Z,8.05
2022-08-18T18:39:33.707Z,7.70
2022-08-18T18:42:26.747Z,8.23
2022-08-18T18:47:33.595Z,11.18
2022-08-18T18:50:10.229Z,9.93
2022-08-18T18:53:13.261Z,9.70
2022-08-18T18:55:56.250Z,13.10
2022-08-18T18:58:40.408Z,13.20
2022-08-18T19:01:20.750Z,12.52
2022-08-18T19:03:59.190Z,14.75
2022-08-18T19:06:45.778Z,15.32
2022-08-18T19:09:52.943Z,16.88
2022-08-18T19:12:27.673Z,15.50
2022-08-18T19:15:03.459Z,15.13
2022-08-18T19:17:45.551Z,15.73
2022-08-18T19:20:20.492Z,16.30
2022-08-18T19:23:11.347Z,17.33
2022-08-18T19:25:59.857Z,17.38
2022-08-18T19:29:08.968Z,18.23
2022-08-18T19:31:43.223Z,17.42
2022-08-18T19:34:22.661Z,18.60
2022-08-18T19:37:13.870Z,17.80
2022-08-18T19:39:55.173Z,17.48
2022-08-18T19:43:12.386Z,17.88
2022-08-18T19:46:10.922Z,17.65
2022-08-18T19:48:58.814Z,17.45
2022-08-18T19:51:32.713Z,18.38
2022-08-18T19:54:25.574Z,18.15
2022-08-18T19:56:56.701Z,18.45
2022-08-18T20:00:11.714Z,18.25
2022-08-18T20:03:18.543Z,18.83
2022-08-18T20:05:56.404Z,19.00
2022-08-18T20:09:14.849Z,18.80
2022-08-18T20:12:22.309Z,18.17
2022-08-18T20:15:12.872Z,18.08
2022-08-18T20:17:58.496Z,18.13
2022-08-18T20:20:29.088Z,16.73
2022-08-18T20:22:58.641Z,18.83
2022-08-18T20:25:35.879Z,18.17
2022-08-18T20:28:03.118Z,18.85
2022-08-18T20:30:52.104Z,18.60
2022-08-18T20:33:25.677Z,19.63
2022-08-18T20:36:13.398Z,18.08
2022-08-18T20:38:48.349Z,19.38
2022-08-18T20:41:44.652Z,18.42
2022-08-18T20:44:28.694Z,19.35
2022-08-18T20:47:11.212Z,19.02
2022-08-18T20:50:34.742Z,17.80
2022-08-18T20:53:30.437Z,19.02
2022-08-18T20:56:31.529Z,19.60
2022-08-18T20:59:19.946Z,19.23
2022-08-18T21:02:27.478Z,17.88
2022-08-18T21:04:58.938Z,18.20
2022-08-18T21:07:37.932Z,18.38
2022-08-18T21:10:21.607Z,17.70
2022-08-18T21:12:58.407Z,19.15
2022-08-18T21:15:37.405Z,20.10
2022-08-18T21:18:33.594Z,19.17
2022-08-18T21:21:02.363Z,19.30
2022-08-18T21:23:35.277Z,19.00
2022-08-18T21:26:16.351Z,19.17
2022-08-18T21:28:47.507Z,18.80
2022-08-18T21:31:42.035Z,18.92
2022-08-18T21:34:33.360Z,18.23
2022-08-18T21:37:08.462Z,20.42
2022-08-18T21:39:48.794Z,19.77
2022-08-18T21:42:25.997Z,19.02
2022-08-18T21:44:57.371Z,18.30
2022-08-18T21:47:34.254Z,18.42
2022-08-18T21:50:15.380Z,17.55
2022-08-18T21:53:05.285Z,19.90
2022-08-18T21:55:45.204Z,20.40
2022-08-18T21:58:16.544Z,20.55
2022-08-18T22:01:06.584Z,20.80
2022-08-18T22:03:35.882Z,20.90
2022-08-18T22:06:28.855Z,21.48
2022-08-18T22:09:23.297Z,19.90
2022-08-18T22:12:43.399Z,19.50
2022-08-18T22:15:25.836Z,20.02
2022-08-18T22:18:06.564Z,21.80
2022-08-18T22:20:57.825Z,21.73
2022-08-18T22:23:57.379Z,20.80
2022-08-18T22:26:34.250Z,21.17
2022-08-18T22:29:26.693Z,20.73
2022-08-18T22:31:55.401Z,20.10
2022-08-18T22:34:29.170Z,21.80
2022-08-18T22:37:12.581Z,22.13
2022-08-18T22:39:53.207Z,22.75
2022-08-18T22:42:24.263Z,20.85
2022-08-18T22:44:51.949Z,20.83
2022-08-18T22:47:20.353Z,21.42
2022-08-18T22:49:47.979Z,21.88
2022-08-18T22:52:39.714Z,20.95
2022-08-18T22:55:11.722Z,20.60
2022-08-18T22:57:40.693Z,20.85
2022-08-18T23:00:18.854Z,22.20
2022-08-18T23:02:47.795Z,22.75
2022-08-18T23:05:15.031Z,24.02
2022-08-18T23:07:42.649Z,24.85
2022-08-18T23:10:14.227Z,23.92
2022-08-18T23:12:46.864Z,22.95
2022-08-18T23:15:17.300Z,24.95
2022-08-18T23:17:44.350Z,24.38
2022-08-18T23:20:18.325Z,24.55
2022-08-18T23:22:48.078Z,22.63
2022-08-18T23:25:16.103Z,25.35
2022-08-18T23:27:43.364Z,25.60
2022-08-18T23:30:10.976Z,23.15
2022-08-18T23:32:37.907Z,23.38
2022-08-18T23:35:05.446Z,21.02
2022-08-18T23:37:32.442Z,20.33
2022-08-18T23:39:59.604Z,22.67
2022-08-18T23:42:26.927Z,24.27
2022-08-18T23:44:54.056Z,23.63
2022-08-18T23:47:21.239Z,23.52
2022-08-18T23:49:48.429Z,23.48
2022-08-18T23:52:15.649Z,22.92
2022-08-18T23:54:42.593Z,22.30
2022-08-18T23:57:09.440Z,22.23
2022-08-18T23:59:36.648Z,23.13
